Terminal Aerodrome Forecast
Issued by NWS

Current Version | Previous Version | Graphics & Text | Print | Product List | Glossary On
Versions: 1 2 3 4 5 6 7 8 9 10 11 12 13 14 15 16 17 18
000
FTUS41 KILN 090400 AAA
TAFLUK
TAF AMD
KLUK 090412Z 0904/0924 26004KT P6SM SCT050
      TEMPO 0904/0906 5SM -SHRA BKN050
     FM090800 00000KT 4SM BR SCT050
      TEMPO 0909/0912 1SM BR SCT002
     FM091300 26004KT P6SM SCT050
     FM091500 27010KT P6SM BKN040=

USA.gov is the U.S. government's official web portal to all federal, state and local government web resources and services.